Time;durP1;ratioP1;P1;durP2;ratioP2;P2;SDS_P1;SDS_P2;PMS_P1;PMS_P2;Temp;Humidity;BMP_temperature;BMP_pressure;BME280_temperature;BME280_humidity;BME280_pressure;Samples;Min_cycle;Max_cycle;Signal;HPM_P1;HPM_P2
2023/01/13 00:01:22;;;;;;;537.72;281.63;;;2.60;99.90;;;;;;5095918;28;20020;-80
2023/01/13 00:03:48;;;;;;;506.80;267.92;;;2.60;99.90;;;;;;5078227;28;20316;-80
2023/01/13 00:06:24;;;;;;;495.23;249.57;;;2.60;99.90;;;;;;5095700;28;20020;-81
2023/01/13 00:08:51;;;;;;;468.70;244.55;;;2.60;99.90;;;;;;5096542;28;20024;-80
2023/01/13 00:11:18;;;;;;;446.38;222.90;;;2.60;99.90;;;;;;5077877;28;20347;-82
2023/01/13 00:13:44;;;;;;;418.55;208.48;;;2.60;99.90;;;;;;5078286;28;20107;-79
2023/01/13 00:16:12;;;;;;;404.33;198.73;;;2.50;99.90;;;;;;5096251;28;20051;-79
2023/01/13 00:18:37;;;;;;;385.98;181.43;;;2.50;99.90;;;;;;5078046;28;20031;-79
2023/01/13 00:21:22;;;;;;;362.75;178.90;;;2.50;99.90;;;;;;5095628;28;20044;-79
2023/01/13 00:23:50;;;;;;;325.10;160.32;;;2.60;99.90;;;;;;5096098;28;20450;-80
2023/01/13 00:26:21;;;;;;;265.85;131.88;;;2.50;99.90;;;;;;5096187;28;20039;-80
2023/01/13 00:28:47;;;;;;;282.17;139.80;;;2.50;99.90;;;;;;5096028;28;20023;-80
2023/01/13 00:31:19;;;;;;;262.48;128.25;;;2.50;99.90;;;;;;5095575;28;20582;-79
2023/01/13 00:33:45;;;;;;;266.90;129.50;;;2.50;99.90;;;;;;5095866;28;20013;-81
2023/01/13 00:36:13;;;;;;;306.15;152.10;;;2.40;99.90;;;;;;5095556;28;20024;-79
2023/01/13 00:38:39;;;;;;;349.63;173.23;;;2.40;99.90;;;;;;5077557;28;20023;-80
2023/01/13 00:41:13;;;;;;;243.00;116.88;;;2.40;99.90;;;;;;5096071;28;20088;-79
2023/01/13 00:43:38;;;;;;;259.58;125.85;;;2.40;99.90;;;;;;5095038;28;20032;-81
2023/01/13 00:46:06;;;;;;;251.82;121.32;;;2.40;99.90;;;;;;5095287;28;20024;-79
2023/01/13 00:48:32;;;;;;;266.77;130.10;;;2.30;99.90;;;;;;5094674;28;20017;-79
2023/01/13 00:51:00;;;;;;;247.32;119.10;;;2.30;99.90;;;;;;5102787;28;20024;-81
2023/01/13 00:53:27;;;;;;;256.65;122.88;;;2.30;99.90;;;;;;5094701;28;20036;-79
2023/01/13 00:56:20;;;;;;;248.32;119.70;;;2.30;99.90;;;;;;5094692;28;20056;-80
2023/01/13 00:58:46;;;;;;;256.42;123.78;;;2.20;99.90;;;;;;5094755;28;20481;-80
2023/01/13 01:01:20;;;;;;;245.80;121.95;;;2.20;99.90;;;;;;5094531;28;20028;-80
2023/01/13 01:03:47;;;;;;;248.75;120.00;;;2.20;99.90;;;;;;5094584;28;20016;-80
2023/01/13 01:06:24;;;;;;;257.30;121.57;;;2.20;99.90;;;;;;5094879;28;20120;-80
2023/01/13 01:08:52;;;;;;;296.60;133.60;;;2.20;99.90;;;;;;5094703;28;20036;-81
2023/01/13 01:11:23;;;;;;;311.25;140.35;;;2.20;99.90;;;;;;5094183;28;20050;-81
2023/01/13 01:13:53;;;;;;;324.98;146.88;;;2.10;99.90;;;;;;5094088;28;20098;-81
2023/01/13 01:16:21;;;;;;;318.45;149.02;;;2.10;99.90;;;;;;5076922;28;20024;-80
2023/01/13 01:18:48;;;;;;;334.65;150.38;;;2.10;99.90;;;;;;5094661;28;20462;-79
2023/01/13 01:21:14;;;;;;;297.60;142.50;;;2.10;99.90;;;;;;5094394;28;20036;-80
2023/01/13 01:23:41;;;;;;;305.27;145.00;;;2.10;99.90;;;;;;5094820;28;20024;-80
2023/01/13 01:26:16;;;;;;;262.60;124.47;;;2.00;99.90;;;;;;5076681;28;20016;-80
2023/01/13 01:28:45;;;;;;;287.85;132.40;;;2.00;99.90;;;;;;5076551;28;20455;-80
2023/01/13 01:31:14;;;;;;;274.30;128.20;;;2.00;99.90;;;;;;5095141;28;20035;-81
2023/01/13 01:33:40;;;;;;;280.83;130.38;;;1.90;99.90;;;;;;5094865;28;20117;-80
2023/01/13 01:36:06;;;;;;;229.10;105.70;;;1.90;99.90;;;;;;5076532;28;20035;-80
2023/01/13 01:38:32;;;;;;;219.77;100.90;;;1.80;99.90;;;;;;5094464;28;20020;-82
2023/01/13 01:40:58;;;;;;;217.55;98.57;;;1.80;99.90;;;;;;5076354;28;20027;-80
2023/01/13 01:43:59;;;;;;;162.18;76.88;;;1.80;99.90;;;;;;5094165;28;20024;-80
2023/01/13 01:46:35;;;;;;;164.07;81.70;;;1.70;99.90;;;;;;5075722;28;20459;-82
2023/01/13 01:49:23;;;;;;;172.35;81.78;;;1.80;99.90;;;;;;5094332;28;20477;-81
2023/01/13 01:51:58;;;;;;;168.45;78.32;;;1.80;99.90;;;;;;5073488;28;20097;-80
2023/01/13 01:54:34;;;;;;;168.32;85.63;;;1.70;99.90;;;;;;5094006;28;20078;-81
2023/01/13 01:57:00;;;;;;;167.68;82.78;;;1.60;99.90;;;;;;5075472;28;20024;-81
2023/01/13 01:59:28;;;;;;;211.75;92.47;;;1.60;99.90;;;;;;5094118;28;20046;-81
2023/01/13 02:01:54;;;;;;;208.38;96.57;;;1.70;99.90;;;;;;5093638;28;20036;-81
2023/01/13 02:04:25;;;;;;;198.23;88.95;;;1.60;99.90;;;;;;5093547;28;20103;-82
2023/01/13 02:06:52;;;;;;;194.90;87.65;;;1.60;99.90;;;;;;5093104;28;20073;-81
2023/01/13 02:09:18;;;;;;;197.00;88.18;;;1.70;99.90;;;;;;5086740;28;20033;-82
2023/01/13 02:14:29;;;;;;;221.85;98.05;;;1.70;99.90;;;;;;5089263;28;20027;-81
2023/01/13 02:16:58;;;;;;;196.38;92.07;;;1.60;99.90;;;;;;5094231;28;20050;-81
2023/01/13 02:19:52;;;;;;;210.45;95.85;;;1.60;99.90;;;;;;5093588;28;20044;-81
2023/01/13 02:22:43;;;;;;;219.20;97.47;;;1.60;99.90;;;;;;5094132;28;20020;-82
2023/01/13 02:25:39;;;;;;;357.55;150.73;;;1.60;99.90;;;;;;5093672;28;20065;-81
2023/01/13 02:28:35;;;;;;;266.50;118.75;;;1.60;99.90;;;;;;5075431;28;20030;-80
2023/01/13 02:34:04;;;;;;;194.30;92.63;;;1.60;99.90;;;;;;5094016;28;20023;-81
2023/01/13 02:36:29;;;;;;;;;;;1.60;99.90;;;;;;5076416;28;20362;-82
2023/01/13 02:39:22;;;;;;;209.07;93.75;;;1.60;99.90;;;;;;5094022;28;19900;-82
2023/01/13 02:45:02;;;;;;;173.10;83.22;;;1.60;99.90;;;;;;5093490;28;20108;-81
2023/01/13 02:47:31;;;;;;;158.52;79.47;;;1.50;99.90;;;;;;5093324;28;20035;-80
2023/01/13 02:50:09;;;;;;;210.38;94.97;;;1.40;99.90;;;;;;5074991;28;20024;-81
2023/01/13 02:52:40;;;;;;;206.98;95.10;;;1.40;99.90;;;;;;5092934;28;20024;-80
2023/01/13 02:55:14;;;;;;;172.55;80.28;;;1.40;99.90;;;;;;5075012;28;20030;-80
2023/01/13 02:57:41;;;;;;;144.18;65.35;;;1.30;99.90;;;;;;5092996;28;20032;-81
2023/01/13 03:00:11;;;;;;;134.63;61.97;;;1.30;99.90;;;;;;5074621;28;20070;-81
2023/01/13 03:02:37;;;;;;;121.60;59.50;;;1.30;99.90;;;;;;5093025;28;20028;-81
2023/01/13 03:05:03;;;;;;;121.60;56.90;;;1.30;99.90;;;;;;5074906;28;20027;-80
2023/01/13 03:08:04;;;;;;;115.55;55.33;;;1.30;99.90;;;;;;5093557;28;20024;-80
2023/01/13 03:10:30;;;;;;;156.40;68.60;;;1.30;99.90;;;;;;5092765;28;20032;-80
2023/01/13 03:13:13;;;;;;;140.10;66.20;;;1.40;99.90;;;;;;5092790;28;20020;-82
2023/01/13 03:15:57;;;;;;;117.22;56.88;;;1.40;99.90;;;;;;5074907;28;20039;-80
2023/01/13 03:18:34;;;;;;;123.22;58.50;;;1.40;99.90;;;;;;5075062;28;20461;-80
2023/01/13 03:21:23;;;;;;;123.78;57.10;;;1.40;99.90;;;;;;5092272;28;20063;-79
2023/01/13 03:23:55;;;;;;;147.43;63.92;;;1.40;99.90;;;;;;5075020;28;20028;-82
2023/01/13 03:26:23;;;;;;;;;;;1.40;99.90;;;;;;5093012;28;20028;-81
2023/01/13 03:28:56;;;;;;;142.73;60.65;;;1.40;99.90;;;;;;5092535;28;20274;-79
2023/01/13 03:31:29;;;;;;;117.68;56.65;;;1.40;99.90;;;;;;5074572;28;20035;-79
2023/01/13 03:34:12;;;;;;;123.10;58.95;;;1.40;99.90;;;;;;5092525;28;20398;-80
2023/01/13 03:36:39;;;;;;;140.88;61.55;;;1.40;99.90;;;;;;5093359;28;20024;-80
2023/01/13 03:39:12;;;;;;;123.97;58.70;;;1.40;99.90;;;;;;5093044;28;20016;-81
2023/01/13 03:41:44;;;;;;;120.10;53.97;;;1.40;99.90;;;;;;5095198;28;20028;-80
2023/01/13 03:44:24;;;;;;;121.40;54.90;;;1.50;99.90;;;;;;5078240;28;20466;-79
2023/01/13 03:47:08;;;;;;;115.90;53.58;;;1.50;99.90;;;;;;5078184;28;20020;-79
2023/01/13 03:49:47;;;;;;;119.43;55.78;;;1.50;99.90;;;;;;5096361;28;20063;-79
2023/01/13 03:52:22;;;;;;;117.32;54.80;;;1.50;99.90;;;;;;5078022;28;20027;-80
2023/01/13 03:54:53;;;;;;;118.53;54.17;;;1.50;99.90;;;;;;5096370;28;20039;-79
2023/01/13 03:57:23;;;;;;;113.85;54.35;;;1.50;99.90;;;;;;5096778;28;20016;-80
2023/01/13 03:59:54;;;;;;;115.22;52.90;;;1.50;99.90;;;;;;5096684;28;20020;-78
2023/01/13 04:02:45;;;;;;;114.32;53.80;;;1.50;99.90;;;;;;5096468;28;20031;-82
2023/01/13 04:05:12;;;;;;;113.25;52.00;;;1.50;99.90;;;;;;5096645;28;20112;-80
2023/01/13 04:08:06;;;;;;;105.95;49.58;;;1.50;99.90;;;;;;5096345;28;20016;-78
2023/01/13 04:10:39;;;;;;;101.55;46.45;;;1.50;99.90;;;;;;5078378;28;20035;-79
2023/01/13 04:13:13;;;;;;;116.15;50.72;;;1.40;99.90;;;;;;5096070;28;20027;-79
2023/01/13 04:15:41;;;;;;;144.02;55.40;;;1.40;99.90;;;;;;5095919;28;20447;-79
2023/01/13 04:18:23;;;;;;;117.40;53.80;;;1.40;99.90;;;;;;5077700;28;20020;-79
2023/01/13 04:20:50;;;;;;;;;;;1.50;99.90;;;;;;5077412;28;20044;-79
2023/01/13 04:23:17;;;;;;;131.93;56.42;;;1.40;99.90;;;;;;5095628;28;19908;-78
2023/01/13 04:25:44;;;;;;;151.77;65.03;;;1.40;99.90;;;;;;5095415;28;20024;-79
2023/01/13 04:28:10;;;;;;;155.02;65.90;;;1.40;99.90;;;;;;5095543;28;20016;-77
2023/01/13 04:30:36;;;;;;;144.18;65.53;;;1.40;99.90;;;;;;5095079;28;20100;-78
2023/01/13 04:33:04;;;;;;;141.13;63.22;;;1.40;99.90;;;;;;5095114;28;20020;-78
2023/01/13 04:35:30;;;;;;;156.20;64.13;;;1.40;99.90;;;;;;5095645;28;20030;-78
2023/01/13 04:37:56;;;;;;;167.48;69.35;;;1.30;99.90;;;;;;5095225;28;20386;-78
2023/01/13 04:40:22;;;;;;;166.15;72.43;;;1.30;99.90;;;;;;5077158;28;20447;-78
2023/01/13 04:42:48;;;;;;;165.63;69.97;;;1.40;99.90;;;;;;5095202;28;20024;-77
2023/01/13 04:45:13;;;;;;;188.68;75.28;;;1.40;99.90;;;;;;5095253;28;20432;-79
2023/01/13 04:47:40;;;;;;;186.68;82.25;;;1.40;99.90;;;;;;5095198;28;20026;-78
2023/01/13 04:50:08;;;;;;;178.82;78.90;;;1.30;99.90;;;;;;5076872;28;20023;-79
2023/01/13 04:52:33;;;;;;;199.15;84.57;;;1.30;99.90;;;;;;5094790;28;20024;-77
2023/01/13 04:54:59;;;;;;;188.73;83.28;;;1.30;99.90;;;;;;5077055;28;20026;-79
2023/01/13 04:57:25;;;;;;;184.70;79.20;;;1.30;99.90;;;;;;5095494;28;20054;-78
2023/01/13 04:59:50;;;;;;;182.13;82.05;;;1.40;99.90;;;;;;5095569;28;20035;-80
2023/01/13 05:02:19;;;;;;;172.93;79.18;;;1.40;99.90;;;;;;5095384;28;20024;-78
2023/01/13 05:04:46;;;;;;;614.45;203.80;;;1.40;99.90;;;;;;5095011;28;20056;-77
2023/01/13 05:07:13;;;;;;;698.60;261.30;;;1.40;99.90;;;;;;5077239;28;20031;-78
2023/01/13 05:09:39;;;;;;;612.58;223.18;;;1.40;99.90;;;;;;5095304;28;20050;-79
2023/01/13 05:17:34;;;;;;;159.50;71.43;;;1.60;99.90;;;;;;5094808;28;20536;-79
2023/01/13 05:20:00;;;;;;;153.85;69.97;;;1.70;99.90;;;;;;5072334;28;20049;-79
2023/01/13 05:25:21;;;;;;;144.02;63.97;;;1.80;99.90;;;;;;5057373;28;20075;-79
2023/01/13 05:27:52;;;;;;;153.40;65.13;;;1.80;99.90;;;;;;5072859;28;20078;-78
2023/01/13 05:30:24;;;;;;;155.38;70.97;;;1.90;99.90;;;;;;5072761;28;20036;-79
2023/01/13 05:32:49;;;;;;;;;;;2.00;99.90;;;;;;5073217;28;20024;-80
2023/01/13 05:35:16;;;;;;;197.68;87.82;;;2.00;99.90;;;;;;5074158;28;19961;-79
2023/01/13 05:37:45;;;;;;;171.50;78.32;;;2.00;99.90;;;;;;5072627;28;20027;-78
2023/01/13 05:43:24;;;;;;;155.15;65.78;;;2.10;99.90;;;;;;5073641;28;20091;-79
2023/01/13 05:46:00;;;;;;;174.05;76.38;;;2.10;99.90;;;;;;5074084;28;20032;-78
2023/01/13 05:48:33;;;;;;;169.00;73.10;;;2.20;99.90;;;;;;5072968;28;20034;-80
2023/01/13 05:51:01;;;;;;;171.35;69.95;;;2.20;99.90;;;;;;5074286;28;20013;-77
2023/01/13 05:53:27;;;;;;;167.82;67.68;;;2.20;99.90;;;;;;5074239;28;20402;-78
2023/01/13 05:55:53;;;;;;;170.25;75.35;;;2.30;99.90;;;;;;5073422;28;20024;-80
2023/01/13 05:58:21;;;;;;;169.85;69.88;;;2.30;99.90;;;;;;5073718;28;20024;-79
2023/01/13 06:00:47;;;;;;;157.68;68.15;;;2.30;99.90;;;;;;5071839;28;20039;-80
2023/01/13 06:03:13;;;;;;;174.10;77.80;;;2.30;99.90;;;;;;5071538;28;20037;-79
2023/01/13 06:05:39;;;;;;;196.23;85.18;;;2.30;99.90;;;;;;5073555;28;20077;-80
2023/01/13 06:08:06;;;;;;;188.55;83.18;;;2.40;99.90;;;;;;5073453;28;20020;-79
2023/01/13 06:10:32;;;;;;;181.23;82.43;;;2.40;99.90;;;;;;5073232;28;20032;-79
2023/01/13 06:12:58;;;;;;;182.52;82.60;;;2.40;99.90;;;;;;5072281;28;20028;-79
2023/01/13 06:15:24;;;;;;;187.57;85.38;;;2.50;99.90;;;;;;5073575;28;20336;-79
2023/01/13 06:17:50;;;;;;;195.23;88.38;;;2.50;99.90;;;;;;5072824;28;20021;-78
2023/01/13 06:20:17;;;;;;;187.73;81.47;;;2.50;99.90;;;;;;5083347;28;20443;-78
2023/01/13 06:22:49;;;;;;;185.50;84.00;;;2.60;99.90;;;;;;5075286;28;20036;-79
2023/01/13 06:25:24;;;;;;;187.48;84.25;;;2.60;99.90;;;;;;5075365;28;20070;-79
2023/01/13 06:27:52;;;;;;;203.18;88.38;;;2.60;99.90;;;;;;5092897;28;20031;-79
2023/01/13 06:30:18;;;;;;;208.57;94.25;;;2.60;99.90;;;;;;5075178;28;20024;-78
2023/01/13 06:32:54;;;;;;;211.38;94.43;;;2.60;99.90;;;;;;5093198;28;20370;-79
2023/01/13 06:35:26;;;;;;;252.98;111.43;;;2.60;99.90;;;;;;5093100;28;20525;-78
2023/01/13 06:37:55;;;;;;;273.50;116.30;;;2.60;99.90;;;;;;5092997;28;20020;-80
2023/01/13 06:40:21;;;;;;;293.45;127.82;;;2.60;99.90;;;;;;5075438;28;20035;-78
2023/01/13 06:45:32;;;;;;;294.08;128.43;;;2.60;99.90;;;;;;5073505;28;20100;-78
2023/01/13 06:47:58;;;;;;;238.10;109.22;;;2.60;99.90;;;;;;5081890;28;20154;-79
2023/01/13 06:50:24;;;;;;;247.68;113.72;;;2.60;99.90;;;;;;5075577;28;20107;-77
2023/01/13 06:52:50;;;;;;;256.73;113.78;;;2.60;99.90;;;;;;5074981;28;20028;-78
2023/01/13 06:55:16;;;;;;;285.75;131.68;;;2.60;99.90;;;;;;5092710;28;20035;-78
2023/01/13 06:57:56;;;;;;;343.60;146.50;;;2.50;99.90;;;;;;5074625;28;20024;-78
2023/01/13 07:00:23;;;;;;;398.38;175.98;;;2.50;99.90;;;;;;5074375;28;20073;-79
2023/01/13 07:02:49;;;;;;;395.35;179.02;;;2.50;99.90;;;;;;5092560;28;20057;-78
2023/01/13 07:05:16;;;;;;;392.33;193.85;;;2.50;99.90;;;;;;5074911;28;20024;-79
2023/01/13 07:07:42;;;;;;;371.15;180.77;;;2.70;99.90;;;;;;5075151;28;20020;-78
2023/01/13 07:10:11;;;;;;;384.20;183.13;;;3.20;99.90;;;;;;5105565;28;20371;-80
2023/01/13 07:15:36;;;;;;;325.95;155.25;;;3.70;99.90;;;;;;5061218;28;20024;-79
2023/01/13 07:18:02;;;;;;;323.25;151.32;;;3.70;99.90;;;;;;5097687;28;20027;-79
2023/01/13 07:20:29;;;;;;;300.75;143.45;;;3.80;99.90;;;;;;5075688;28;20496;-79
2023/01/13 07:22:56;;;;;;;323.23;154.18;;;3.80;99.90;;;;;;5089477;28;20028;-79
2023/01/13 07:25:22;;;;;;;340.92;166.25;;;4.00;99.90;;;;;;5075560;28;20028;-80
2023/01/13 07:27:48;;;;;;;308.75;144.43;;;4.10;99.90;;;;;;5085392;28;20024;-80
2023/01/13 07:30:14;;;;;;;245.48;111.88;;;4.00;99.90;;;;;;5097399;28;20413;-80
2023/01/13 07:32:40;;;;;;;216.40;99.85;;;4.10;99.90;;;;;;5097477;28;20032;-80
2023/01/13 07:35:06;;;;;;;208.05;97.43;;;4.50;99.90;;;;;;5097202;28;20102;-80
2023/01/13 07:37:33;;;;;;;220.25;103.28;;;4.70;99.90;;;;;;5097336;28;20024;-79
2023/01/13 07:40:00;;;;;;;359.27;162.57;;;4.80;99.90;;;;;;5088301;28;20074;-79
2023/01/13 07:45:11;;;;;;;262.85;122.22;;;4.70;99.90;;;;;;5076574;28;20063;-80
2023/01/13 07:47:36;;;;;;;252.07;117.68;;;4.90;99.90;;;;;;5076759;28;20025;-82
2023/01/13 07:50:02;;;;;;;231.95;102.20;;;5.00;99.90;;;;;;5076623;28;20028;-80
2023/01/13 07:52:28;;;;;;;178.65;82.88;;;4.80;99.90;;;;;;5075082;28;20024;-80
2023/01/13 07:54:54;;;;;;;276.63;118.75;;;4.70;99.90;;;;;;5075339;28;20027;-80
2023/01/13 07:57:22;;;;;;;198.55;87.82;;;4.70;99.90;;;;;;5076464;28;20052;-81
2023/01/13 07:59:48;;;;;;;217.52;98.70;;;4.70;99.90;;;;;;5076630;28;20360;-80
2023/01/13 08:02:14;;;;;;;144.40;65.72;;;4.80;99.90;;;;;;5075040;28;20033;-82
2023/01/13 08:04:39;;;;;;;157.63;78.72;;;4.90;99.90;;;;;;5076342;28;20074;-82
2023/01/13 08:07:05;;;;;;;223.57;111.15;;;4.90;99.90;;;;;;5076192;28;20020;-81
2023/01/13 08:09:31;;;;;;;181.88;81.22;;;5.30;99.90;;;;;;5075384;28;20423;-81
2023/01/13 08:14:41;;;;;;;149.82;70.40;;;5.40;99.90;;;;;;5076222;28;20063;-82
2023/01/13 08:17:08;;;;;;;177.40;78.40;;;5.40;99.90;;;;;;5076368;28;20589;-83
2023/01/13 08:19:34;;;;;;;146.40;65.50;;;5.50;99.90;;;;;;5074745;28;20044;-80
2023/01/13 08:22:00;;;;;;;135.00;61.35;;;5.70;99.90;;;;;;5076061;28;20029;-81
2023/01/13 08:24:25;;;;;;;110.03;52.67;;;5.80;99.90;;;;;;5074984;28;20024;-80
2023/01/13 08:26:51;;;;;;;95.88;48.70;;;5.80;99.90;;;;;;5070660;28;20021;-81
2023/01/13 08:29:17;;;;;;;108.50;52.67;;;5.70;99.90;;;;;;5054687;28;20071;-81
2023/01/13 08:31:43;;;;;;;136.80;65.95;;;5.90;99.90;;;;;;5055882;28;20021;-82
2023/01/13 08:34:08;;;;;;;121.78;50.58;;;6.00;99.90;;;;;;5056658;28;20372;-81
2023/01/13 08:36:34;;;;;;;142.60;67.97;;;6.00;99.90;;;;;;5055600;28;20036;-80
2023/01/13 08:39:00;;;;;;;414.83;195.65;;;6.20;99.90;;;;;;5074501;28;20021;-81
2023/01/13 08:44:11;;;;;;;181.00;82.78;;;6.40;99.90;;;;;;5047098;28;20427;-83
2023/01/13 08:46:37;;;;;;;124.18;63.05;;;6.50;99.90;;;;;;5054271;28;20450;-83
2023/01/13 08:49:03;;;;;;;133.75;61.13;;;6.60;99.90;;;;;;5067624;28;20025;-82
2023/01/13 08:51:29;;;;;;;102.22;51.50;;;6.70;99.90;;;;;;5057610;28;20040;-82
2023/01/13 08:53:54;;;;;;;75.10;36.90;;;6.80;99.90;;;;;;5054883;28;20071;-83
2023/01/13 08:56:20;;;;;;;77.35;37.95;;;6.70;99.90;;;;;;5059857;28;20028;-83
2023/01/13 08:58:46;;;;;;;76.53;39.80;;;6.90;99.90;;;;;;5055308;28;20475;-83
2023/01/13 09:01:20;;;;;;;84.43;44.15;;;7.10;99.90;;;;;;5055984;28;20028;-83
2023/01/13 09:03:45;;;;;;;76.00;38.78;;;7.40;99.90;;;;;;5064687;28;20073;-83
2023/01/13 09:06:11;;;;;;;81.38;42.90;;;7.50;99.90;;;;;;5065981;28;20032;-83
2023/01/13 09:08:37;;;;;;;85.20;42.30;;;7.70;99.90;;;;;;5055343;28;20025;-83
2023/01/13 09:13:10;;;;;;;72.22;34.58;;;7.80;99.90;;;;;;5059055;28;20020;-81
2023/01/13 09:13:49;;;;;;;106.63;54.75;;;7.90;99.90;;;;;;5066993;28;20397;-81
2023/01/13 09:16:15;;;;;;;184.90;112.22;;;8.00;99.90;;;;;;5065192;28;20035;-82
2023/01/13 09:18:40;;;;;;;123.20;70.43;;;8.00;99.90;;;;;;5054820;28;20025;-81
2023/01/13 09:21:09;;;;;;;83.00;41.72;;;8.10;99.90;;;;;;5087387;28;20040;-82
2023/01/13 09:23:35;;;;;;;70.03;40.10;;;7.80;99.90;;;;;;5094045;28;20057;-82
2023/01/13 09:26:00;;;;;;;61.35;34.00;;;7.80;99.90;;;;;;5093322;28;20450;-82
2023/01/13 09:28:26;;;;;;;61.10;34.65;;;7.90;99.90;;;;;;5093225;28;20012;-83
2023/01/13 09:30:52;;;;;;;69.40;35.15;;;8.20;99.90;;;;;;5101409;28;20070;-82
2023/01/13 09:36:01;;;;;;;54.42;29.10;;;8.60;99.90;;;;;;5114420;28;20439;-82
2023/01/13 09:38:27;;;;;;;62.58;32.30;;;8.70;99.90;;;;;;5112962;28;20445;-82
2023/01/13 09:40:54;;;;;;;41.00;23.45;;;8.90;99.90;;;;;;5113660;28;20359;-83
2023/01/13 09:49:04;;;;;;;58.60;29.33;;;9.20;99.90;;;;;;5093824;28;20030;-83
2023/01/13 09:51:42;;;;;;;59.88;32.42;;;9.20;99.90;;;;;;5093887;28;20095;-82
2023/01/13 09:54:21;;;;;;;60.30;33.38;;;9.70;99.90;;;;;;5075668;28;20111;-82
2023/01/13 09:56:46;;;;;;;53.78;27.02;;;10.20;99.90;;;;;;5096830;28;20032;-79
2023/01/13 09:59:14;;;;;;;59.03;35.97;;;10.50;99.90;;;;;;5075054;28;20088;-79
2023/01/13 10:02:17;;;;;;;51.45;27.23;;;11.00;99.90;;;;;;5101723;28;20153;-82
2023/01/13 10:04:42;;;;;;;60.65;28.38;;;11.10;99.90;;;;;;5093899;28;20031;-79
2023/01/13 10:07:13;;;;;;;50.25;25.40;;;11.20;99.90;;;;;;5093078;28;20016;-81
2023/01/13 10:09:47;;;;;;;37.95;22.02;;;11.30;99.90;;;;;;5075447;28;20115;-81
2023/01/13 10:15:02;;;;;;;59.10;36.00;;;11.30;97.90;;;;;;5090689;28;20035;-81
2023/01/13 10:17:34;;;;;;;71.40;39.47;;;11.60;98.60;;;;;;5092733;28;20031;-80
2023/01/13 10:20:05;;;;;;;;;;;11.10;98.00;;;;;;5097112;28;20068;-81
2023/01/13 10:22:44;;;;;;;53.90;28.73;;;11.50;99.10;;;;;;5093058;28;19912;-80
2023/01/13 10:25:29;;;;;;;61.00;33.35;;;;;;;;;;5073888;28;20027;-79
2023/01/13 10:28:00;;;;;;;79.47;40.40;;;11.80;97.30;;;;;;5093198;28;20020;-80
2023/01/13 10:30:32;;;;;;;67.88;33.17;;;11.60;95.20;;;;;;5097080;28;20084;-79
2023/01/13 10:33:24;;;;;;;45.22;23.60;;;11.00;96.00;;;;;;5072899;28;20467;-80
2023/01/13 10:35:58;;;;;;;49.30;27.90;;;10.30;98.70;;;;;;5050257;28;20031;-79
2023/01/13 10:38:38;;;;;;;55.30;29.90;;;10.40;99.90;;;;;;5072894;28;20021;-79
2023/01/13 10:41:19;;;;;;;47.40;25.23;;;10.40;99.90;;;;;;5074831;28;20074;-79
2023/01/13 10:43:58;;;;;;;83.22;41.50;;;10.30;99.90;;;;;;5092400;28;20099;-76
2023/01/13 10:46:24;;;;;;;57.53;29.75;;;10.30;99.90;;;;;;5074601;28;20458;-78
2023/01/13 10:49:24;;;;;;;50.28;26.83;;;10.60;99.90;;;;;;5092722;28;20024;-80
2023/01/13 10:51:50;;;;;;;459.10;226.52;;;11.60;98.40;;;;;;5078958;28;20028;-78
2023/01/13 10:54:21;;;;;;;213.38;98.45;;;12.10;94.80;;;;;;5078483;28;20034;-80
2023/01/13 10:56:48;;;;;;;283.88;125.68;;;12.90;93.10;;;;;;5096870;28;20024;-80
2023/01/13 10:59:22;;;;;;;193.50;106.65;;;13.40;91.70;;;;;;5078271;28;20467;-79
2023/01/13 11:02:16;;;;;;;64.30;37.15;;;13.30;90.50;;;;;;5096535;28;20055;-80
2023/01/13 11:04:54;;;;;;;79.57;46.13;;;12.30;90.50;;;;;;5095803;28;20054;-80
2023/01/13 11:07:39;;;;;;;62.83;34.88;;;12.20;91.80;;;;;;5096240;28;20028;-80
2023/01/13 11:10:28;;;;;;;57.90;30.80;;;12.10;93.00;;;;;;5096269;28;20026;-80
2023/01/13 11:13:04;;;;;;;50.10;28.42;;;11.60;92.70;;;;;;5078164;28;20034;-79
2023/01/13 11:15:48;;;;;;;65.95;38.72;;;11.20;93.70;;;;;;5096514;28;20015;-80
2023/01/13 11:18:27;;;;;;;64.95;31.52;;;10.80;94.90;;;;;;5077521;28;20040;-80
2023/01/13 11:20:54;;;;;;;53.25;29.30;;;11.00;95.80;;;;;;5096077;28;20044;-78
2023/01/13 11:23:35;;;;;;;50.92;32.50;;;10.90;96.10;;;;;;5077768;28;20028;-79
2023/01/13 11:26:16;;;;;;;63.37;38.53;;;10.80;95.60;;;;;;5095322;28;20114;-81
2023/01/13 11:29:07;;;;;;;66.43;37.90;;;11.00;96.60;;;;;;5094583;28;20076;-78
2023/01/13 11:31:44;;;;;;;68.47;40.88;;;11.30;97.10;;;;;;5093444;28;20110;-78
2023/01/13 11:34:14;;;;;;;70.35;39.83;;;11.70;95.70;;;;;;5078412;28;20031;-79
2023/01/13 11:36:51;;;;;;;64.43;37.78;;;12.00;94.50;;;;;;5096141;28;20108;-79
2023/01/13 11:40:05;;;;;;;59.40;32.85;;;12.30;94.00;;;;;;5097956;28;20028;-87
2023/01/13 11:42:40;;;;;;;50.33;25.52;;;12.40;92.20;;;;;;5014492;28;20116;-80
2023/01/13 11:45:33;;;;;;;38.13;20.30;;;12.40;91.40;;;;;;4998101;28;20049;-78
2023/01/13 11:48:05;;;;;;;46.40;24.17;;;12.40;90.50;;;;;;5014915;28;20461;-77
2023/01/13 11:51:04;;;;;;;53.45;27.60;;;12.40;90.90;;;;;;5014682;28;20076;-79
2023/01/13 11:54:02;;;;;;;50.70;24.42;;;12.50;90.40;;;;;;5014785;28;20042;-80
2023/01/13 11:56:45;;;;;;;52.65;29.73;;;12.30;90.50;;;;;;5014739;28;20053;-80
2023/01/13 11:59:22;;;;;;;57.10;30.63;;;12.20;90.90;;;;;;5014611;28;20034;-78
2023/01/13 12:02:05;;;;;;;45.17;25.55;;;12.30;91.00;;;;;;5013351;28;20026;-79
2023/01/13 12:04:57;;;;;;;42.33;25.75;;;12.10;90.90;;;;;;5014393;28;20081;-78
2023/01/13 12:07:26;;;;;;;83.45;42.47;;;11.90;90.90;;;;;;4997894;28;20549;-79
2023/01/13 12:10:18;;;;;;;80.53;41.88;;;12.00;91.60;;;;;;5014231;28;20358;-80
2023/01/13 12:12:54;;;;;;;68.13;35.42;;;12.00;91.70;;;;;;5014182;28;20535;-79
2023/01/13 12:15:34;;;;;;;41.42;24.10;;;11.90;91.30;;;;;;5014040;28;20040;-80
2023/01/13 12:18:25;;;;;;;42.75;25.88;;;11.70;90.70;;;;;;5015896;28;20022;-82
2023/01/13 12:21:11;;;;;;;68.68;32.28;;;11.50;91.70;;;;;;5065652;28;20045;-80
2023/01/13 12:23:51;;;;;;;50.05;26.98;;;11.40;92.80;;;;;;5036353;28;20116;-79
2023/01/13 12:26:17;;;;;;;60.10;31.38;;;11.20;92.70;;;;;;5047132;28;20151;-81
2023/01/13 12:28:46;;;;;;;69.93;37.60;;;11.00;93.00;;;;;;5048525;28;20100;-80
2023/01/13 12:31:13;;;;;;;52.33;28.65;;;10.90;94.20;;;;;;5035154;28;20595;-80
2023/01/13 12:33:55;;;;;;;73.20;37.47;;;10.80;93.70;;;;;;5051540;28;20020;-79
2023/01/13 12:36:51;;;;;;;58.85;33.67;;;10.60;94.80;;;;;;5054548;28;20104;-79
2023/01/13 12:39:33;;;;;;;61.60;33.28;;;10.60;96.40;;;;;;5054581;28;20179;-79
2023/01/13 12:45:11;;;;;;;53.47;27.88;;;10.40;97.10;;;;;;5053561;28;20435;-78
2023/01/13 12:47:45;;;;;;;69.72;35.53;;;10.20;97.40;;;;;;5054636;28;20191;-79
2023/01/13 12:50:25;;;;;;;59.72;30.58;;;10.20;97.80;;;;;;5054189;28;20112;-79
2023/01/13 12:52:56;;;;;;;65.85;34.40;;;10.20;99.00;;;;;;5055334;28;20107;-80
2023/01/13 12:55:24;;;;;;;48.10;27.98;;;10.20;99.90;;;;;;5055510;28;20099;-79
2023/01/13 12:58:16;;;;;;;52.50;28.30;;;10.10;99.90;;;;;;5054076;28;20025;-81
2023/01/13 13:00:44;;;;;;;58.58;29.80;;;10.10;99.90;;;;;;5053353;28;20043;-80
2023/01/13 13:03:12;;;;;;;70.63;37.28;;;9.90;99.90;;;;;;5055256;28;20017;-79
2023/01/13 13:05:53;;;;;;;106.03;53.67;;;9.90;99.90;;;;;;5054875;28;20438;-80
2023/01/13 13:08:39;;;;;;;65.20;35.72;;;9.90;99.90;;;;;;5053812;28;20136;-80
2023/01/13 13:13:16;;;;;;;63.53;31.30;;;9.90;99.90;;;;;;5054749;28;20025;-80
2023/01/13 13:14:12;;;;;;;56.38;29.83;;;9.90;99.90;;;;;;5054354;28;20051;-80
2023/01/13 13:16:51;;;;;;;66.68;36.95;;;9.80;99.90;;;;;;5055224;28;20029;-80
2023/01/13 13:19:20;;;;;;;68.15;33.88;;;9.80;99.90;;;;;;5057596;28;20395;-81
2023/01/13 13:22:11;;;;;;;63.00;31.75;;;9.80;99.90;;;;;;5094721;28;20024;-79
2023/01/13 13:24:38;;;;;;;95.88;44.63;;;9.70;99.90;;;;;;5056603;28;20036;-81
2023/01/13 13:27:18;;;;;;;61.22;31.10;;;9.80;99.90;;;;;;5076589;28;20347;-80
2023/01/13 13:29:59;;;;;;;65.80;32.67;;;9.70;99.90;;;;;;5076698;28;20062;-80
2023/01/13 13:32:52;;;;;;;64.00;29.88;;;9.70;99.90;;;;;;5095002;28;20033;-78
2023/01/13 13:35:55;;;;;;;70.30;35.58;;;9.60;99.90;;;;;;5094727;28;20077;-79
2023/01/13 13:47:06;;;;;;;127.60;62.75;;;9.40;99.90;;;;;;5094464;28;20084;-80
2023/01/13 13:49:52;;;;;;;98.03;46.63;;;9.40;99.90;;;;;;5094778;28;20024;-79
2023/01/13 13:52:32;;;;;;;118.13;55.95;;;9.40;99.90;;;;;;5076535;28;20047;-77